Time;durP1;ratioP1;P1;durP2;ratioP2;P2;SDS_P1;SDS_P2;PMS_P1;PMS_P2;Temp;Humidity;BMP_temperature;BMP_pressure;BME280_temperature;BME280_humidity;BME280_pressure;Samples;Min_cycle;Max_cycle;Signal;HPM_P1;HPM_P2
2022/11/12 00:00:20;;;;;;;18.58;11.95;;;22.00;61.40;;;;;;5031887;28;20033;-71
2022/11/12 00:03:05;;;;;;;21.70;13.25;;;22.10;61.60;;;;;;5044834;28;20081;-70
2022/11/12 00:05:50;;;;;;;22.23;11.85;;;22.00;61.50;;;;;;5032820;28;20038;-72
2022/11/12 00:08:35;;;;;;;22.02;12.63;;;22.00;61.60;;;;;;5032573;28;20053;-72
2022/11/12 00:11:20;;;;;;;19.08;13.10;;;21.90;61.50;;;;;;5032884;28;20029;-71
2022/11/12 00:14:05;;;;;;;16.77;12.13;;;22.00;61.40;;;;;;5032498;28;20024;-72
2022/11/12 00:16:49;;;;;;;18.92;12.75;;;21.90;61.50;;;;;;5032969;28;20041;-71
2022/11/12 00:19:33;;;;;;;17.75;11.82;;;22.00;61.40;;;;;;5032762;28;20021;-71
2022/11/12 00:22:19;;;;;;;16.73;11.57;;;21.90;61.30;;;;;;5032672;28;20087;-71
2022/11/12 00:25:04;;;;;;;15.60;10.98;;;22.00;61.20;;;;;;5032822;28;20128;-72
2022/11/12 00:27:49;;;;;;;14.02;10.50;;;22.10;61.10;;;;;;5032903;28;20038;-71
2022/11/12 00:30:35;;;;;;;15.25;10.43;;;22.00;60.90;;;;;;5032995;28;20117;-72
2022/11/12 00:33:20;;;;;;;12.68;9.38;;;22.10;60.90;;;;;;5031923;28;20084;-72
2022/11/12 00:36:05;;;;;;;11.77;9.15;;;22.00;60.80;;;;;;5030959;28;20052;-71
2022/11/12 00:38:50;;;;;;;10.65;8.98;;;22.00;60.70;;;;;;5032804;28;20032;-71
2022/11/12 00:41:34;;;;;;;10.15;8.52;;;22.10;60.80;;;;;;5032764;28;20060;-71
2022/11/12 00:44:19;;;;;;;13.05;10.88;;;22.10;60.60;;;;;;5032587;28;20053;-70
2022/11/12 00:47:04;;;;;;;8.77;7.38;;;22.10;60.40;;;;;;5031782;28;20467;-72
2022/11/12 00:49:48;;;;;;;8.07;7.07;;;22.20;60.20;;;;;;5012410;28;20077;-72
2022/11/12 00:52:33;;;;;;;8.57;7.00;;;22.20;60.10;;;;;;5012500;28;20038;-71
2022/11/12 00:55:17;;;;;;;9.15;7.65;;;22.20;60.10;;;;;;5012422;28;20124;-70
2022/11/12 00:58:02;;;;;;;12.43;8.57;;;22.30;60.10;;;;;;5012471;28;20041;-71
2022/11/12 01:00:47;;;;;;;11.23;8.40;;;22.30;60.10;;;;;;5012617;28;20045;-71
2022/11/12 01:03:31;;;;;;;10.10;7.82;;;22.30;60.00;;;;;;5012322;28;20038;-71
2022/11/12 01:06:19;;;;;;;9.07;8.00;;;22.40;60.00;;;;;;5012464;28;20060;-71
2022/11/12 01:09:03;;;;;;;11.82;8.27;;;22.30;60.00;;;;;;5012422;28;20491;-71
2022/11/12 01:11:48;;;;;;;11.05;8.68;;;22.30;60.00;;;;;;5012274;28;20041;-71
2022/11/12 01:14:33;;;;;;;13.30;8.18;;;22.30;60.00;;;;;;5012177;28;20025;-71
2022/11/12 01:17:17;;;;;;;10.63;8.55;;;22.40;59.90;;;;;;5012133;28;20486;-71
2022/11/12 01:20:02;;;;;;;9.52;7.93;;;22.30;59.90;;;;;;5012064;28;20034;-71
2022/11/12 01:22:46;;;;;;;11.82;7.93;;;22.30;59.80;;;;;;5011869;28;20440;-71
2022/11/12 01:25:31;;;;;;;9.02;7.80;;;22.40;59.80;;;;;;5011995;28;20025;-70
2022/11/12 01:28:15;;;;;;;10.60;8.63;;;22.30;59.70;;;;;;5012055;28;20045;-71
2022/11/12 01:31:10;;;;;;;9.32;7.50;;;22.50;59.80;;;;;;5012027;28;20038;-71
2022/11/12 01:34:00;;;;;;;8.77;7.78;;;22.30;59.60;;;;;;5011926;28;20137;-71
2022/11/12 01:36:45;;;;;;;10.85;8.38;;;22.30;59.60;;;;;;5023878;28;20033;-71
2022/11/12 01:39:29;;;;;;;9.73;7.95;;;22.40;59.60;;;;;;5031718;28;20137;-71
2022/11/12 01:42:14;;;;;;;8.73;7.82;;;22.40;59.50;;;;;;5031303;28;20183;-71
2022/11/12 01:44:58;;;;;;;12.10;8.20;;;22.40;59.50;;;;;;5030383;28;20120;-71
2022/11/12 01:47:45;;;;;;;9.52;8.05;;;22.30;59.50;;;;;;5031521;28;20037;-70
2022/11/12 01:50:34;;;;;;;9.05;8.00;;;22.30;59.50;;;;;;5031420;28;20041;-71
2022/11/12 01:53:21;;;;;;;10.23;7.55;;;22.30;59.50;;;;;;5031554;28;20359;-71
2022/11/12 01:56:07;;;;;;;13.32;8.57;;;22.30;59.50;;;;;;5031371;28;20033;-71
2022/11/12 01:58:58;;;;;;;11.68;8.13;;;22.20;59.40;;;;;;5031100;28;20037;-71
2022/11/12 02:01:42;;;;;;;9.52;8.25;;;22.20;59.50;;;;;;5030495;28;20120;-70
2022/11/12 02:04:27;;;;;;;12.45;8.65;;;22.20;59.40;;;;;;5031191;28;20475;-71
2022/11/12 02:07:12;;;;;;;9.20;7.88;;;22.10;59.60;;;;;;5029858;28;20375;-72
2022/11/12 02:09:58;;;;;;;9.65;8.50;;;22.10;59.70;;;;;;5031585;28;20049;-70
2022/11/12 02:15:46;;;;;;;10.82;7.43;;;22.20;59.60;;;;;;5030904;28;20371;-71
2022/11/12 02:18:31;;;;;;;8.80;6.85;;;22.10;59.50;;;;;;5043337;28;20608;-71
2022/11/12 02:21:20;;;;;;;10.60;7.57;;;22.20;59.40;;;;;;5030968;28;20033;-70
2022/11/12 02:24:12;;;;;;;11.55;8.30;;;22.10;59.30;;;;;;5030917;28;20323;-71
2022/11/12 02:26:58;;;;;;;9.07;7.47;;;22.20;59.20;;;;;;5028597;28;20455;-71
2022/11/12 02:29:46;;;;;;;9.07;7.65;;;22.00;59.10;;;;;;5030692;28;20557;-71
2022/11/12 02:32:31;;;;;;;9.70;8.70;;;22.20;59.10;;;;;;5030580;28;20087;-70
2022/11/12 02:35:16;;;;;;;8.68;7.30;;;22.10;59.10;;;;;;5030910;28;20112;-71
2022/11/12 02:38:01;;;;;;;9.75;7.70;;;22.00;59.00;;;;;;5031110;28;20101;-71
2022/11/12 02:40:45;;;;;;;9.98;8.45;;;22.20;59.10;;;;;;5029947;28;20107;-71
2022/11/12 02:43:30;;;;;;;10.10;7.95;;;22.20;59.00;;;;;;5028349;28;20034;-71
2022/11/12 02:46:15;;;;;;;10.55;7.65;;;22.20;58.90;;;;;;5030104;28;20034;-71
2022/11/12 02:48:59;;;;;;;9.25;7.63;;;22.00;58.80;;;;;;5028925;28;20025;-69
2022/11/12 02:51:44;;;;;;;10.48;7.45;;;22.30;59.00;;;;;;5029265;28;20128;-71
2022/11/12 02:54:29;;;;;;;8.02;7.13;;;22.10;58.90;;;;;;5029953;28;20033;-71
2022/11/12 02:57:13;;;;;;;11.93;7.95;;;22.10;58.90;;;;;;5030787;28;20120;-71
2022/11/12 02:59:58;;;;;;;9.40;7.57;;;22.10;59.00;;;;;;5030936;28;20037;-71
2022/11/12 03:02:42;;;;;;;11.73;7.50;;;22.00;59.00;;;;;;5030341;28;20049;-71
2022/11/12 03:05:28;;;;;;;11.23;8.80;;;22.00;59.00;;;;;;5030297;28;20025;-71
2022/11/12 03:08:13;;;;;;;9.95;7.78;;;21.90;59.00;;;;;;5030587;28;20056;-71
2022/11/12 03:10:57;;;;;;;11.82;8.70;;;22.00;59.10;;;;;;5030053;28;20525;-71
2022/11/12 03:13:42;;;;;;;11.57;8.43;;;21.80;59.00;;;;;;5031896;28;20033;-72
2022/11/12 03:16:27;;;;;;;9.10;7.65;;;21.90;59.20;;;;;;5032312;28;20099;-71
2022/11/12 03:19:11;;;;;;;8.43;7.53;;;21.80;59.00;;;;;;5048752;28;20056;-71
2022/11/12 03:21:56;;;;;;;9.45;7.75;;;21.90;59.00;;;;;;5034195;28;20140;-70
2022/11/12 03:24:40;;;;;;;9.18;8.23;;;21.80;58.80;;;;;;5033887;28;20112;-69
2022/11/12 03:27:25;;;;;;;8.30;6.85;;;21.90;58.80;;;;;;5033639;28;20375;-71
2022/11/12 03:30:10;;;;;;;10.60;7.95;;;21.90;58.70;;;;;;5033833;28;20125;-72
2022/11/12 03:32:54;;;;;;;10.38;7.85;;;21.90;58.70;;;;;;5033327;28;20574;-71
2022/11/12 03:35:39;;;;;;;9.60;7.60;;;21.80;58.50;;;;;;5033130;28;20037;-71
2022/11/12 03:38:24;;;;;;;8.30;7.18;;;22.00;58.60;;;;;;5017295;28;20063;-71
2022/11/12 03:41:09;;;;;;;7.00;6.40;;;22.00;58.50;;;;;;5033487;28;20367;-70
2022/11/12 03:43:53;;;;;;;7.53;5.90;;;21.90;58.40;;;;;;5033744;28;20478;-71
2022/11/12 03:46:38;;;;;;;7.15;6.40;;;22.00;58.40;;;;;;5013699;28;20076;-71
2022/11/12 03:49:22;;;;;;;6.88;5.88;;;21.80;58.40;;;;;;5013990;28;20112;-71
2022/11/12 03:52:07;;;;;;;8.25;6.07;;;21.90;58.60;;;;;;5014167;28;20133;-70
2022/11/12 03:54:51;;;;;;;7.10;6.40;;;21.80;58.40;;;;;;5013848;28;20034;-71
2022/11/12 03:57:36;;;;;;;6.90;5.88;;;21.90;58.40;;;;;;5025881;28;20044;-71
2022/11/12 04:00:22;;;;;;;6.60;5.90;;;21.80;58.20;;;;;;5033697;28;20030;-71
2022/11/12 04:03:07;;;;;;;5.93;5.32;;;21.80;58.30;;;;;;5033371;28;20046;-71
2022/11/12 04:08:55;;;;;;;9.13;7.63;;;21.70;58.50;;;;;;5033635;28;20057;-71
2022/11/12 04:11:39;;;;;;;8.43;7.53;;;21.70;58.60;;;;;;5033042;28;20084;-71
2022/11/12 04:14:24;;;;;;;7.05;6.35;;;21.60;58.50;;;;;;5033445;28;20026;-71
2022/11/12 04:23:15;;;;;;;8.18;6.70;;;21.60;58.30;;;;;;5031905;28;20107;-71
2022/11/12 04:32:07;;;;;;;10.60;7.82;;;21.70;58.40;;;;;;5032911;28;20061;-71
2022/11/12 04:34:52;;;;;;;12.73;7.65;;;21.70;58.30;;;;;;5033013;28;20061;-71
2022/11/12 04:37:46;;;;;;;12.20;7.30;;;21.60;58.20;;;;;;5032183;28;20525;-71
2022/11/12 04:46:38;;;;;;;;;;;21.90;57.80;;;;;;5013289;28;20434;-72
2022/11/12 04:49:23;;;;;;;8.25;6.47;;;22.00;57.40;;;;;;5013035;28;19964;-71
2022/11/12 04:52:08;;;;;;;7.05;5.93;;;22.30;57.20;;;;;;5012496;28;20502;-71
2022/11/12 04:54:53;;;;;;;7.20;6.47;;;22.20;56.70;;;;;;5012651;28;20084;-71
2022/11/12 04:57:38;;;;;;;8.40;7.05;;;22.50;56.40;;;;;;5012561;28;20037;-73
2022/11/12 05:00:22;;;;;;;6.40;5.53;;;22.40;55.90;;;;;;5012551;28;20076;-74
2022/11/12 05:03:07;;;;;;;9.20;6.28;;;22.50;58.90;;;;;;5012744;28;20101;-76
2022/11/12 05:05:52;;;;;;;6.90;6.20;;;22.90;58.70;;;;;;5012331;28;20065;-73
2022/11/12 05:08:36;;;;;;;7.95;7.03;;;23.20;63.00;;;;;;5012291;28;20077;-72
2022/11/12 05:11:21;;;;;;;7.78;6.57;;;23.30;58.40;;;;;;5012349;28;20034;-74
2022/11/12 05:14:05;;;;;;;7.88;7.07;;;23.30;55.00;;;;;;5012178;28;20042;-72
2022/11/12 05:16:51;;;;;;;10.25;8.10;;;23.20;53.90;;;;;;5012154;28;20495;-74
2022/11/12 05:19:35;;;;;;;7.85;6.95;;;23.10;52.30;;;;;;5012357;28;20041;-74
2022/11/12 05:22:20;;;;;;;10.65;6.53;;;22.90;52.70;;;;;;5011929;28;20060;-74
2022/11/12 05:25:05;;;;;;;8.38;6.80;;;22.60;53.10;;;;;;5012342;28;20042;-73
2022/11/12 05:27:50;;;;;;;9.00;7.18;;;22.50;54.00;;;;;;5011970;28;20038;-70
2022/11/12 05:30:34;;;;;;;7.43;6.72;;;22.40;54.80;;;;;;5025494;28;20030;-73
2022/11/12 05:33:20;;;;;;;7.60;6.45;;;22.30;55.30;;;;;;5030958;28;20068;-72
2022/11/12 05:36:05;;;;;;;7.45;5.68;;;22.30;55.70;;;;;;5030494;28;20038;-72
2022/11/12 05:38:50;;;;;;;6.20;5.60;;;22.20;56.00;;;;;;5031654;28;20033;-73
2022/11/12 05:41:35;;;;;;;9.10;6.35;;;22.20;56.20;;;;;;5031753;28;20176;-72
2022/11/12 05:44:19;;;;;;;7.40;6.20;;;22.20;56.50;;;;;;5031561;28;20032;-71
2022/11/12 05:47:04;;;;;;;7.50;6.80;;;22.20;53.30;;;;;;5031719;28;20057;-71
2022/11/12 05:49:48;;;;;;;9.25;6.63;;;22.00;51.90;;;;;;5031623;28;20382;-71
2022/11/12 05:52:33;;;;;;;8.35;6.65;;;22.30;52.90;;;;;;5030289;28;20048;-71
2022/11/12 05:55:17;;;;;;;8.77;7.35;;;22.50;53.60;;;;;;5031570;28;20057;-70
2022/11/12 05:58:05;;;;;;;8.30;7.07;;;22.60;53.20;;;;;;5031433;28;20424;-74
2022/11/12 06:00:50;;;;;;;8.27;7.32;;;22.80;52.30;;;;;;5030199;28;20098;-73
2022/11/12 06:03:35;;;;;;;7.18;6.47;;;22.90;51.80;;;;;;5031064;28;20490;-72
2022/11/12 06:06:19;;;;;;;8.25;7.43;;;22.80;52.50;;;;;;5031120;28;20038;-73
2022/11/12 06:09:04;;;;;;;8.13;6.20;;;23.00;51.80;;;;;;5029960;28;20091;-74
2022/11/12 06:11:49;;;;;;;7.47;6.28;;;23.00;52.80;;;;;;5029828;28;20037;-74
2022/11/12 06:14:33;;;;;;;8.32;7.43;;;23.00;52.60;;;;;;5031083;28;20382;-72
2022/11/12 06:17:18;;;;;;;7.30;6.60;;;23.00;51.20;;;;;;5031163;28;20048;-73
2022/11/12 06:20:02;;;;;;;8.38;7.53;;;23.00;49.50;;;;;;5029222;28;20037;-73
2022/11/12 06:22:48;;;;;;;7.03;6.32;;;23.00;49.80;;;;;;5030845;28;20042;-73
2022/11/12 06:25:32;;;;;;;5.93;5.30;;;23.00;51.10;;;;;;5031078;28;20034;-74
2022/11/12 06:28:16;;;;;;;7.05;5.93;;;23.10;50.20;;;;;;5031078;28;20030;-71
2022/11/12 06:31:01;;;;;;;9.57;6.60;;;23.10;51.90;;;;;;5030002;28;20029;-73
2022/11/12 06:33:46;;;;;;;8.88;6.88;;;23.10;51.90;;;;;;5027455;28;20155;-73
2022/11/12 06:36:31;;;;;;;8.70;6.85;;;23.20;56.50;;;;;;5030869;28;20083;-71
2022/11/12 06:39:15;;;;;;;7.82;6.93;;;23.20;56.90;;;;;;5030959;28;20385;-73
2022/11/12 06:42:00;;;;;;;9.13;7.53;;;23.00;57.40;;;;;;5029529;28;20037;-74
2022/11/12 06:44:45;;;;;;;9.75;6.60;;;22.90;57.70;;;;;;5030826;28;20044;-73
2022/11/12 06:47:30;;;;;;;9.07;6.22;;;22.90;58.20;;;;;;5030832;28;20048;-74
2022/11/12 06:50:14;;;;;;;9.35;7.03;;;22.80;58.60;;;;;;5034834;28;20026;-71
2022/11/12 06:52:59;;;;;;;10.05;6.65;;;22.70;58.10;;;;;;5034686;28;20375;-71
2022/11/12 06:55:44;;;;;;;9.10;7.20;;;22.60;58.10;;;;;;5034795;28;20029;-71
2022/11/12 06:58:29;;;;;;;10.50;7.28;;;22.50;58.40;;;;;;5034896;28;20072;-72
2022/11/12 07:01:16;;;;;;;8.38;7.00;;;22.60;58.40;;;;;;5034284;28;20026;-72
2022/11/12 07:04:01;;;;;;;9.77;7.70;;;22.40;58.50;;;;;;5034002;28;20435;-73
2022/11/12 07:06:45;;;;;;;11.98;8.32;;;22.50;58.50;;;;;;5034554;28;20029;-70
2022/11/12 07:09:30;;;;;;;15.23;9.88;;;22.30;58.40;;;;;;5034532;28;20183;-74
2022/11/12 07:12:14;;;;;;;15.60;9.95;;;22.50;58.70;;;;;;5034445;28;20025;-72
2022/11/12 07:14:58;;;;;;;12.93;9.05;;;22.40;58.90;;;;;;5034303;28;20121;-72
2022/11/12 07:17:46;;;;;;;11.15;8.65;;;22.40;58.80;;;;;;5034444;28;20037;-71
2022/11/12 07:20:30;;;;;;;9.93;8.07;;;22.40;58.90;;;;;;5034324;28;20041;-71
2022/11/12 07:23:15;;;;;;;12.27;7.88;;;22.30;60.50;;;;;;5034397;28;20033;-73
2022/11/12 07:26:05;;;;;;;10.15;8.48;;;22.40;60.20;;;;;;5033665;28;20048;-71
2022/11/12 07:28:51;;;;;;;13.90;9.02;;;22.40;60.00;;;;;;5017884;28;20079;-71
2022/11/12 07:31:35;;;;;;;15.43;9.93;;;22.50;58.40;;;;;;5032713;28;20037;-69
2022/11/12 07:34:20;;;;;;;12.82;9.98;;;22.30;59.40;;;;;;5033944;28;20033;-70
2022/11/12 07:37:04;;;;;;;17.80;9.88;;;22.30;60.70;;;;;;5014244;28;20049;-71
2022/11/12 07:39:49;;;;;;;18.48;10.32;;;22.30;60.70;;;;;;5014166;28;20033;-72
2022/11/12 07:42:34;;;;;;;17.27;10.55;;;22.20;60.70;;;;;;5014084;28;20114;-71
2022/11/12 07:45:19;;;;;;;18.60;10.77;;;22.20;60.90;;;;;;5014197;28;20034;-71
2022/11/12 07:48:04;;;;;;;18.35;10.23;;;22.20;61.30;;;;;;5026092;28;20207;-71
2022/11/12 07:50:48;;;;;;;14.18;10.75;;;22.20;61.00;;;;;;5033726;28;20025;-71
2022/11/12 07:53:33;;;;;;;23.25;12.93;;;22.10;61.20;;;;;;5033810;28;20092;-73
2022/11/12 07:56:20;;;;;;;21.63;13.80;;;22.10;61.70;;;;;;5032628;28;20029;-73
2022/11/12 07:59:06;;;;;;;20.70;13.20;;;22.10;62.00;;;;;;5031694;28;20108;-71
2022/11/12 08:01:51;;;;;;;22.38;10.60;;;22.00;62.20;;;;;;5041445;28;20490;-70
2022/11/12 08:04:35;;;;;;;22.92;13.80;;;22.20;62.50;;;;;;5031320;28;20025;-69
2022/11/12 08:07:19;;;;;;;23.52;14.75;;;22.20;61.20;;;;;;5031025;28;20033;-70
2022/11/12 08:10:04;;;;;;;28.90;16.55;;;22.30;61.20;;;;;;5029075;28;20618;-73
2022/11/12 08:12:49;;;;;;;24.38;15.52;;;22.20;61.10;;;;;;5024362;28;20029;-69
2022/11/12 08:15:34;;;;;;;27.58;15.52;;;22.20;61.60;;;;;;5029292;28;20518;-69
2022/11/12 08:18:18;;;;;;;29.45;15.30;;;22.20;61.90;;;;;;5030148;28;20449;-70
2022/11/12 08:21:06;;;;;;;31.38;15.13;;;22.20;62.40;;;;;;5030163;28;20117;-71
2022/11/12 08:23:51;;;;;;;25.75;15.82;;;22.10;62.70;;;;;;5032943;28;20092;-71
2022/11/12 08:26:36;;;;;;;27.98;16.27;;;22.30;63.50;;;;;;5032407;28;20111;-69
2022/11/12 08:29:22;;;;;;;27.15;16.27;;;22.30;62.80;;;;;;5016801;28;20061;-68
2022/11/12 08:32:06;;;;;;;26.77;17.00;;;22.20;62.30;;;;;;5082366;28;20041;-72
2022/11/12 08:34:51;;;;;;;28.20;16.77;;;22.30;62.40;;;;;;5032763;28;20427;-72
2022/11/12 08:37:35;;;;;;;27.02;16.05;;;22.30;62.70;;;;;;5033157;28;20045;-73
2022/11/12 08:40:20;;;;;;;28.50;17.50;;;22.30;62.70;;;;;;5032702;28;20041;-74
2022/11/12 08:43:06;;;;;;;30.15;16.60;;;22.30;62.60;;;;;;5032342;28;20042;-72
2022/11/12 08:45:51;;;;;;;26.38;15.55;;;22.30;63.00;;;;;;5032898;28;20040;-78
2022/11/12 08:48:36;;;;;;;23.60;15.43;;;22.60;69.40;;;;;;5032911;28;20119;-79
2022/11/12 08:51:20;;;;;;;27.00;14.15;;;23.30;69.60;;;;;;5031415;28;20030;-75
2022/11/12 08:54:05;;;;;;;27.90;15.85;;;24.20;67.20;;;;;;5032849;28;20379;-75
2022/11/12 08:56:49;;;;;;;21.55;13.27;;;24.70;63.80;;;;;;5058786;28;20423;-75
2022/11/12 08:59:34;;;;;;;20.38;14.02;;;25.20;60.40;;;;;;5029302;28;20052;-82
2022/11/12 09:02:18;;;;;;;59.50;22.75;;;25.00;55.00;;;;;;5032408;28;20045;-78
2022/11/12 09:05:03;;;;;;;21.67;15.82;;;24.80;53.30;;;;;;5033856;28;20071;-75
2022/11/12 09:07:55;;;;;;;30.95;16.40;;;24.60;52.30;;;;;;5032370;28;20029;-76
2022/11/12 09:10:39;;;;;;;21.50;14.25;;;24.50;56.80;;;;;;5032071;28;20112;-71
2022/11/12 09:13:24;;;;;;;19.92;14.52;;;24.50;50.70;;;;;;5032218;28;20061;-69
2022/11/12 09:16:09;;;;;;;21.50;13.55;;;24.40;61.00;;;;;;5029988;28;20427;-71
2022/11/12 09:18:54;;;;;;;19.27;14.30;;;24.50;51.50;;;;;;5032262;28;20102;-76
2022/11/12 09:21:38;;;;;;;21.38;15.30;;;24.60;51.30;;;;;;5032125;28;20036;-73
2022/11/12 09:24:23;;;;;;;23.83;15.10;;;24.50;67.50;;;;;;5031317;28;20031;-71
2022/11/12 09:27:07;;;;;;;23.33;15.27;;;24.40;54.00;;;;;;5027753;28;20040;-76
2022/11/12 09:29:52;;;;;;;22.10;14.95;;;24.50;55.70;;;;;;5033498;28;20025;-73
2022/11/12 09:32:36;;;;;;;19.00;14.27;;;24.50;57.30;;;;;;5034770;28;20040;-71
2022/11/12 09:35:21;;;;;;;17.48;12.70;;;24.60;57.40;;;;;;5042460;28;20037;-76
2022/11/12 09:38:06;;;;;;;23.50;13.30;;;24.60;59.30;;;;;;5051668;28;20032;-70
2022/11/12 09:40:50;;;;;;;24.40;14.75;;;24.60;53.80;;;;;;5051633;28;20036;-69
2022/11/12 09:44:08;;;;;;;22.25;15.95;;;24.50;49.10;;;;;;5051741;28;20512;-68
2022/11/12 09:47:22;;;;;;;23.75;14.98;;;24.60;51.50;;;;;;5029037;28;20132;-70
2022/11/12 09:50:26;;;;;;;;;;;24.50;50.90;;;;;;4931793;29;20553;-69
2022/11/12 09:53:19;;;;;;;19.40;14.68;;;24.40;53.80;;;;;;4931888;29;19990;-71
2022/11/12 09:56:11;;;;;;;23.38;15.18;;;24.50;50.40;;;;;;4931734;29;20095;-72
2022/11/12 09:58:56;;;;;;;25.92;16.27;;;24.30;50.30;;;;;;4931659;29;20446;-72
2022/11/12 10:01:49;;;;;;;30.38;17.77;;;24.40;50.50;;;;;;4931513;29;20070;-75
2022/11/12 10:04:48;;;;;;;27.90;18.23;;;24.50;53.00;;;;;;4930836;29;20134;-72
2022/11/12 10:07:47;;;;;;;30.88;19.95;;;24.60;54.60;;;;;;4924046;29;20564;-69
2022/11/12 10:10:44;;;;;;;113.85;75.00;;;24.80;62.70;;;;;;4931467;29;20095;-73
2022/11/12 10:13:41;;;;;;;35.25;18.10;;;24.90;52.30;;;;;;4931701;29;20075;-71
2022/11/12 10:16:45;;;;;;;24.63;16.63;;;24.90;52.00;;;;;;4931312;29;20039;-70
2022/11/12 10:19:47;;;;;;;30.13;17.40;;;24.90;51.80;;;;;;4931620;29;20047;-73
2022/11/12 10:22:39;;;;;;;27.80;16.75;;;24.80;52.90;;;;;;4929618;29;20059;-71
2022/11/12 10:25:24;;;;;;;20.40;13.18;;;24.90;62.00;;;;;;4967404;28;20077;-71
2022/11/12 10:28:47;;;;;;;30.23;15.82;;;25.00;50.20;;;;;;5030743;28;20025;-74
2022/11/12 10:31:31;;;;;;;18.25;11.35;;;24.80;50.10;;;;;;5008979;28;20108;-74
2022/11/12 10:34:22;;;;;;;19.75;11.05;;;24.80;55.50;;;;;;4991721;28;20748;-72
2022/11/12 10:37:32;;;;;;;15.82;10.93;;;25.00;54.90;;;;;;4995072;28;20045;-71
2022/11/12 10:40:20;;;;;;;18.25;12.30;;;25.00;55.30;;;;;;4949802;28;20050;-70
2022/11/12 10:43:16;;;;;;;17.33;11.85;;;24.90;55.90;;;;;;4949910;28;20039;-71
2022/11/12 10:46:19;;;;;;;19.13;12.65;;;25.00;53.30;;;;;;4935743;28;20059;-70
2022/11/12 10:49:20;;;;;;;22.77;11.98;;;25.00;47.10;;;;;;4967709;28;20109;-74
2022/11/12 10:52:21;;;;;;;23.17;13.52;;;24.90;47.30;;;;;;4967793;28;20050;-70
2022/11/12 10:55:27;;;;;;;19.02;12.50;;;25.00;45.80;;;;;;4968785;28;20042;-70
2022/11/12 10:58:21;;;;;;;21.73;14.82;;;24.90;47.70;;;;;;4964919;28;20039;-68
2022/11/12 11:01:15;;;;;;;31.10;19.60;;;25.00;47.10;;;;;;4968434;28;20488;-68
2022/11/12 11:03:59;;;;;;;19.85;14.25;;;24.90;46.50;;;;;;4969436;28;20063;-68
2022/11/12 11:06:44;;;;;;;18.90;6.55;;;24.90;46.30;;;;;;4988726;28;20038;-68
2022/11/12 11:09:29;;;;;;;1.45;1.15;;;24.90;51.60;;;;;;4988308;28;20482;-68
2022/11/12 11:12:33;;;;;;;15.95;3.05;;;24.80;54.40;;;;;;4988640;28;20056;-70
2022/11/12 11:15:22;;;;;;;16.63;6.55;;;24.80;55.20;;;;;;4988229;28;20026;-72
2022/11/12 11:18:11;;;;;;;5.63;4.22;;;25.00;56.80;;;;;;5025501;28;20071;-72
2022/11/12 11:21:19;;;;;;;4.95;4.20;;;25.00;56.50;;;;;;5043677;28;20044;-71
2022/11/12 11:24:03;;;;;;;3.67;2.95;;;25.10;55.10;;;;;;5029413;28;20060;-72
2022/11/12 11:27:01;;;;;;;8.38;3.20;;;25.00;55.20;;;;;;5029719;28;20033;-72
2022/11/12 11:30:08;;;;;;;2.97;2.45;;;25.10;55.30;;;;;;5029943;28;20044;-71
2022/11/12 11:33:17;;;;;;;8.32;4.18;;;25.00;57.00;;;;;;5029201;28;20018;-71
2022/11/12 11:36:23;;;;;;;2.50;2.33;;;25.30;58.30;;;;;;5033181;28;20033;-75
2022/11/12 11:39:32;;;;;;;10.27;4.90;;;25.30;55.90;;;;;;5033088;28;20099;-74
2022/11/12 11:42:46;;;;;;;28.38;17.17;;;25.10;53.80;;;;;;5033218;28;20041;-74
2022/11/12 11:45:48;;;;;;;;;;;25.10;54.20;;;;;;5039956;28;20037;-74
2022/11/12 11:49:10;;;;;;;32.80;17.17;;;25.00;54.30;;;;;;5014117;28;19932;-71
2022/11/12 11:52:22;;;;;;;27.15;16.17;;;24.80;54.40;;;;;;5039509;28;20021;-72
2022/11/12 11:55:32;;;;;;;27.00;17.27;;;24.80;54.50;;;;;;5053723;28;20501;-72
2022/11/12 11:58:46;;;;;;;25.52;16.42;;;24.80;54.90;;;;;;5038486;28;20112;-73
2022/11/12 12:01:46;;;;;;;35.65;19.58;;;25.00;59.40;;;;;;4958324;28;20043;-70
2022/11/12 12:04:50;;;;;;;26.13;14.32;;;25.60;63.60;;;;;;4972201;28;20047;-72
2022/11/12 12:08:01;;;;;;;21.45;15.45;;;26.50;66.40;;;;;;4972095;28;20097;-73
2022/11/12 12:11:06;;;;;;;25.85;15.48;;;26.30;58.40;;;;;;4972012;28;20042;-72
2022/11/12 12:14:31;;;;;;;;;;;26.00;55.90;;;;;;4953234;28;20178;-71
2022/11/12 12:17:38;;;;;;;23.08;14.35;;;25.90;57.00;;;;;;4952170;28;19914;-73
2022/11/12 12:20:42;;;;;;;24.92;14.65;;;26.00;59.20;;;;;;4952416;29;20036;-70
2022/11/12 12:23:32;;;;;;;18.05;14.15;;;26.00;57.90;;;;;;4952026;28;20047;-70
2022/11/12 12:26:23;;;;;;;32.55;21.90;;;26.00;60.20;;;;;;4952572;28;20047;-71
2022/11/12 12:29:18;;;;;;;34.22;22.48;;;25.90;60.10;;;;;;4952417;29;20051;-72
2022/11/12 12:32:25;;;;;;;43.28;24.67;;;25.80;56.50;;;;;;4952316;29;20055;-72
2022/11/12 12:35:26;;;;;;;36.22;22.30;;;25.60;55.60;;;;;;4933282;29;20043;-67
2022/11/12 12:38:37;;;;;;;29.58;18.48;;;25.60;55.50;;;;;;4960935;28;20038;-67
2022/11/12 12:41:46;;;;;;;29.73;18.60;;;25.60;55.50;;;;;;4991114;28;20038;-70
2022/11/12 12:45:06;;;;;;;27.55;17.08;;;25.50;55.40;;;;;;4895002;29;20056;-69
2022/11/12 12:47:53;;;;;;;26.83;17.02;;;25.30;55.80;;;;;;4881716;29;20045;-70
2022/11/12 12:50:40;;;;;;;27.40;15.88;;;25.30;55.90;;;;;;4894613;29;20037;-70
2022/11/12 12:53:24;;;;;;;27.48;16.60;;;25.30;56.10;;;;;;4894469;29;20059;-70
2022/11/12 12:56:12;;;;;;;26.60;14.82;;;25.10;56.40;;;;;;4894934;29;20463;-72
2022/11/12 12:59:02;;;;;;;18.45;12.88;;;25.10;56.50;;;;;;4894578;29;20063;-69
2022/11/12 13:02:00;;;;;;;19.00;12.95;;;25.00;56.70;;;;;;4908073;29;20041;-70
2022/11/12 13:04:55;;;;;;;16.98;11.00;;;25.00;56.80;;;;;;4881371;29;20162;-69
2022/11/12 13:07:46;;;;;;;18.45;12.05;;;24.90;57.00;;;;;;4894525;29;20049;-70
2022/11/12 13:10:46;;;;;;;17.30;10.75;;;24.80;57.00;;;;;;4894224;29;20088;-69
2022/11/12 13:13:34;;;;;;;15.38;11.00;;;24.90;57.30;;;;;;4951567;28;20046;-70
2022/11/12 13:16:49;;;;;;;20.13;10.57;;;24.80;57.20;;;;;;4946350;29;20058;-69
2022/11/12 13:20:07;;;;;;;20.13;12.13;;;24.80;57.50;;;;;;4964785;28;20110;-71
2022/11/12 13:22:51;;;;;;;21.58;11.95;;;24.70;57.60;;;;;;5012080;28;20046;-71
2022/11/12 13:25:36;;;;;;;19.27;12.70;;;24.60;57.60;;;;;;5012137;28;20026;-72
2022/11/12 13:28:21;;;;;;;20.08;11.90;;;24.60;57.90;;;;;;5011968;28;20435;-70
2022/11/12 13:31:24;;;;;;;22.52;12.55;;;24.50;57.70;;;;;;5011795;28;20068;-69
2022/11/12 13:34:27;;;;;;;26.08;13.40;;;24.40;57.60;;;;;;5027705;28;20423;-70
2022/11/12 13:37:19;;;;;;;21.08;11.38;;;24.50;57.40;;;;;;5031182;28;20037;-70
2022/11/12 13:40:13;;;;;;;22.08;12.32;;;24.40;57.50;;;;;;5011501;28;20034;-69
2022/11/12 13:43:02;;;;;;;21.70;12.55;;;24.30;60.30;;;;;;5011567;28;20045;-69
2022/11/12 13:46:10;;;;;;;22.58;12.38;;;24.30;64.60;;;;;;5010552;28;20449;-74
2022/11/12 13:49:07;;;;;;;22.20;13.00;;;24.30;67.40;;;;;;5011930;28;20061;-71
2022/11/12 13:51:55;;;;;;;16.58;11.07;;;24.30;63.10;;;;;;5011671;28;20034;-71
2022/11/12 13:54:39;;;;;;;17.38;11.32;;;24.20;60.00;;;;;;5017456;28;20089;-70
2022/11/12 13:57:30;;;;;;;20.75;11.32;;;24.20;59.60;;;;;;5030881;28;20041;-72
2022/11/12 14:00:17;;;;;;;25.40;11.80;;;24.20;58.90;;;;;;5028930;28;20677;-73
2022/11/12 14:03:07;;;;;;;19.05;12.15;;;24.10;58.90;;;;;;5031203;28;20047;-72
2022/11/12 14:05:52;;;;;;;16.25;10.93;;;24.20;58.70;;;;;;5030266;28;20032;-72
2022/11/12 14:08:52;;;;;;;18.35;10.38;;;24.10;59.20;;;;;;5030842;28;20055;-71
2022/11/12 14:11:57;;;;;;;21.17;12.68;;;24.10;59.20;;;;;;5011481;28;20037;-71
2022/11/12 14:15:09;;;;;;;22.85;12.38;;;24.20;59.10;;;;;;5028031;28;20040;-73
2022/11/12 14:18:02;;;;;;;22.02;11.70;;;24.30;59.80;;;;;;5030922;28;20030;-71
2022/11/12 14:20:48;;;;;;;18.00;13.23;;;24.10;59.10;;;;;;5031102;28;20117;-71
2022/11/12 14:23:37;;;;;;;26.00;15.00;;;24.10;59.30;;;;;;5031074;28;20030;-71
2022/11/12 14:26:41;;;;;;;20.52;12.82;;;24.10;59.30;;;;;;5031030;28;20030;-71
2022/11/12 14:29:26;;;;;;;22.40;13.02;;;24.00;59.00;;;;;;5015081;28;20052;-71
2022/11/12 14:32:12;;;;;;;21.65;12.30;;;24.00;59.30;;;;;;5030965;28;20171;-71
2022/11/12 14:34:56;;;;;;;24.63;16.23;;;24.00;59.40;;;;;;5030853;28;20108;-70
2022/11/12 14:37:50;;;;;;;28.05;16.20;;;23.90;59.50;;;;;;5045162;28;20049;-72
2022/11/12 14:40:41;;;;;;;23.13;15.15;;;23.90;59.20;;;;;;5030363;28;20075;-72
2022/11/12 14:43:41;;;;;;;23.75;14.20;;;23.90;59.40;;;;;;5030602;28;20040;-70
2022/11/12 14:46:28;;;;;;;28.00;15.07;;;24.00;59.70;;;;;;5030780;28;20026;-70
2022/11/12 14:49:21;;;;;;;37.65;18.67;;;23.80;59.80;;;;;;5030421;28;20056;-71
2022/11/12 14:52:12;;;;;;;33.25;17.63;;;23.80;60.00;;;;;;5030682;28;20042;-70